Time;durP1;ratioP1;P1;durP2;ratioP2;P2;SDS_P1;SDS_P2;PMS_P1;PMS_P2;Temp;Humidity;BMP_temperature;BMP_pressure;BME280_temperature;BME280_humidity;BME280_pressure;Samples;Min_cycle;Max_cycle;Signal;HPM_P1;HPM_P2
2023/07/12 00:00:56;;;;;;;0.10;0.10;;;23.50;99.90;;;;;;5027730;28;20202;-82
2023/07/12 00:03:22;;;;;;;0.10;0.10;;;23.60;99.90;;;;;;5030044;28;20198;-82
2023/07/12 00:05:47;;;;;;;0.10;0.10;;;23.50;99.90;;;;;;5023127;28;20202;-82
2023/07/12 00:08:21;;;;;;;0.10;0.10;;;23.50;99.90;;;;;;5026676;28;20225;-82
2023/07/12 00:10:48;;;;;;;0.10;0.10;;;23.60;99.90;;;;;;5029443;28;20193;-82
2023/07/12 00:13:14;;;;;;;0.10;0.10;;;23.70;99.90;;;;;;5029518;28;20182;-82
2023/07/12 00:15:40;;;;;;;0.10;0.10;;;23.60;99.90;;;;;;5027597;28;20627;-82
2023/07/12 00:18:17;;;;;;;0.10;0.10;;;23.70;99.90;;;;;;5028496;28;20625;-82
2023/07/12 00:20:44;;;;;;;0.10;0.10;;;23.60;99.90;;;;;;5028932;28;20212;-82
2023/07/12 00:23:12;;;;;;;0.10;0.10;;;23.60;99.90;;;;;;5028401;28;20648;-82
2023/07/12 00:25:38;;;;;;;0.10;0.10;;;23.60;99.90;;;;;;5029830;28;20214;-82
2023/07/12 00:28:25;;;;;;;0.10;0.10;;;23.70;99.90;;;;;;5029886;28;20203;-82
2023/07/12 00:30:52;;;;;;;0.10;0.10;;;23.60;99.90;;;;;;5027682;28;20178;-82
2023/07/12 00:33:18;;;;;;;0.10;0.10;;;23.60;99.90;;;;;;5030316;28;20560;-82
2023/07/12 00:35:44;;;;;;;0.10;0.10;;;23.60;99.90;;;;;;5027526;28;20197;-82
2023/07/12 00:38:17;;;;;;;0.10;0.10;;;23.70;99.90;;;;;;5028653;28;20293;-82
2023/07/12 00:41:07;;;;;;;0.10;0.10;;;23.60;99.90;;;;;;5029213;28;20681;-82
2023/07/12 00:43:53;;;;;;;0.10;0.10;;;23.50;99.90;;;;;;5029097;28;20206;-82
2023/07/12 00:46:21;;;;;;;0.10;0.10;;;23.60;99.90;;;;;;5028874;28;20194;-82
2023/07/12 00:48:47;;;;;;;0.10;0.10;;;23.60;99.90;;;;;;5027899;28;20695;-82
2023/07/12 00:51:48;;;;;;;0.10;0.10;;;23.60;99.90;;;;;;5028454;28;20183;-82
2023/07/12 00:54:18;;;;;;;0.10;0.10;;;23.50;99.90;;;;;;5028221;28;20189;-83
2023/07/12 00:56:43;;;;;;;0.10;0.10;;;23.60;99.90;;;;;;5029821;28;20182;-82
2023/07/12 00:59:25;;;;;;;0.10;0.10;;;23.60;99.90;;;;;;5030369;28;20513;-82
2023/07/12 01:01:54;;;;;;;0.10;0.10;;;23.60;99.90;;;;;;5025918;28;20557;-82
2023/07/12 01:04:29;;;;;;;0.10;0.10;;;23.50;99.90;;;;;;5029002;28;20179;-82
2023/07/12 01:06:55;;;;;;;0.10;0.10;;;23.40;99.90;;;;;;5027918;28;20191;-82
2023/07/12 01:09:21;;;;;;;0.10;0.10;;;23.40;99.90;;;;;;5027529;28;20198;-82
2023/07/12 01:11:47;;;;;;;2.00;1.90;;;23.40;99.90;;;;;;5028518;28;20187;-82
2023/07/12 01:14:15;;;;;;;0.10;0.10;;;23.30;99.90;;;;;;5030815;28;20254;-82
2023/07/12 01:16:43;;;;;;;0.10;0.10;;;23.10;99.90;;;;;;5027352;28;20774;-82
2023/07/12 01:19:09;;;;;;;0.10;0.10;;;23.20;99.90;;;;;;5027550;28;20234;-82
2023/07/12 01:21:40;;;;;;;0.10;0.10;;;23.10;99.90;;;;;;5027307;28;20206;-82
2023/07/12 01:24:06;;;;;;;0.10;0.10;;;23.10;99.90;;;;;;5026867;28;20321;-82
2023/07/12 01:26:53;;;;;;;0.10;0.10;;;23.00;99.90;;;;;;5026296;28;20183;-82
2023/07/12 01:29:20;;;;;;;0.10;0.10;;;22.90;99.90;;;;;;5026662;28;20790;-82
2023/07/12 01:31:46;;;;;;;0.10;0.10;;;23.00;99.90;;;;;;5026650;28;20258;-82
2023/07/12 01:34:12;;;;;;;0.10;0.10;;;22.90;99.90;;;;;;5027258;28;20230;-82
2023/07/12 01:36:38;;;;;;;0.10;0.10;;;22.90;99.90;;;;;;5027461;28;20194;-82
2023/07/12 01:39:05;;;;;;;0.10;0.10;;;22.90;99.90;;;;;;5026611;28;20225;-82
2023/07/12 01:41:32;;;;;;;0.10;0.10;;;22.80;99.90;;;;;;5027484;28;20211;-82
2023/07/12 01:43:58;;;;;;;0.10;0.10;;;22.80;99.90;;;;;;5027195;28;20198;-82
2023/07/12 01:46:24;;;;;;;0.10;0.10;;;22.90;99.90;;;;;;5025102;28;20189;-82
2023/07/12 01:48:49;;;;;;;0.10;0.10;;;22.90;99.90;;;;;;5026043;28;20211;-82
2023/07/12 01:51:17;;;;;;;0.10;0.10;;;22.90;99.90;;;;;;5026218;28;20189;-82
2023/07/12 01:53:43;;;;;;;0.10;0.10;;;23.00;99.90;;;;;;5024216;28;20209;-82
2023/07/12 01:56:11;;;;;;;0.10;0.10;;;23.00;99.90;;;;;;5026533;28;20201;-82
2023/07/12 01:58:37;;;;;;;0.10;0.10;;;23.00;99.90;;;;;;5025131;28;20202;-82
2023/07/12 02:01:03;;;;;;;0.10;0.10;;;23.00;99.90;;;;;;5023861;28;20206;-82
2023/07/12 02:03:28;;;;;;;0.10;0.10;;;23.00;99.90;;;;;;5027580;28;20179;-82
2023/07/12 02:05:54;;;;;;;0.10;0.10;;;23.00;99.90;;;;;;5025072;28;20206;-82
2023/07/12 02:08:20;;;;;;;0.10;0.10;;;23.00;99.90;;;;;;5026403;28;20755;-82
2023/07/12 02:10:47;;;;;;;0.10;0.10;;;23.00;99.90;;;;;;5025731;28;20186;-82
2023/07/12 02:13:13;;;;;;;0.10;0.10;;;23.00;99.90;;;;;;5027949;28;20187;-82
2023/07/12 02:15:38;;;;;;;0.10;0.10;;;23.00;99.90;;;;;;5024889;28;20193;-82
2023/07/12 02:18:04;;;;;;;0.10;0.10;;;23.00;99.90;;;;;;5026221;28;20340;-83
2023/07/12 02:20:30;;;;;;;0.10;0.10;;;23.00;99.90;;;;;;5024997;28;20273;-82
2023/07/12 02:22:55;;;;;;;0.10;0.10;;;23.00;99.90;;;;;;5024119;28;20221;-83
2023/07/12 02:25:21;;;;;;;0.10;0.10;;;23.00;99.90;;;;;;5026234;28;20255;-83
2023/07/12 02:27:48;;;;;;;0.10;0.10;;;23.00;99.90;;;;;;5029017;28;21004;-82
2023/07/12 02:30:20;;;;;;;0.10;0.10;;;23.00;99.90;;;;;;5025164;28;20670;-82
2023/07/12 02:32:46;;;;;;;0.10;0.10;;;23.00;99.90;;;;;;5026570;28;20673;-83
2023/07/12 02:35:12;;;;;;;0.10;0.10;;;23.10;99.90;;;;;;5025565;28;20178;-83
2023/07/12 02:37:38;;;;;;;0.10;0.10;;;23.10;99.90;;;;;;5024719;28;20213;-82
2023/07/12 02:40:05;;;;;;;0.10;0.10;;;23.10;99.90;;;;;;5025234;28;20312;-82
2023/07/12 02:42:31;;;;;;;0.10;0.10;;;23.20;99.90;;;;;;5026090;28;20222;-82
2023/07/12 02:44:57;;;;;;;0.10;0.10;;;23.20;99.90;;;;;;5025310;28;20597;-82
2023/07/12 02:47:23;;;;;;;0.10;0.10;;;23.10;99.90;;;;;;5028835;28;20252;-82
2023/07/12 02:49:49;;;;;;;0.10;0.10;;;23.00;99.90;;;;;;5028867;28;20917;-85
2023/07/12 02:52:15;;;;;;;0.10;0.10;;;23.10;99.90;;;;;;5025924;28;20201;-82
2023/07/12 02:54:40;;;;;;;0.10;0.10;;;23.10;99.90;;;;;;5026595;28;20191;-82
2023/07/12 02:57:09;;;;;;;0.10;0.10;;;23.10;99.90;;;;;;5030050;28;20183;-83
2023/07/12 02:59:35;;;;;;;0.10;0.10;;;23.00;99.90;;;;;;5025089;28;20299;-83
2023/07/12 03:02:00;;;;;;;0.10;0.10;;;23.10;99.90;;;;;;5026100;28;20289;-83
2023/07/12 03:04:26;;;;;;;0.10;0.10;;;23.10;99.90;;;;;;5025920;28;20577;-83
2023/07/12 03:06:51;;;;;;;0.10;0.10;;;23.10;99.90;;;;;;5025646;28;20190;-84
2023/07/12 03:09:17;;;;;;;0.10;0.10;;;23.00;99.90;;;;;;5025345;28;20283;-82
2023/07/12 03:11:49;;;;;;;0.10;0.10;;;23.20;99.90;;;;;;5027839;28;20257;-83
2023/07/12 03:14:16;;;;;;;0.10;0.10;;;23.20;99.90;;;;;;5024231;28;20195;-83
2023/07/12 03:16:42;;;;;;;0.10;0.10;;;23.30;99.90;;;;;;5025900;28;20197;-84
2023/07/12 03:19:08;;;;;;;0.10;0.10;;;23.30;99.90;;;;;;5026534;28;20276;-83
2023/07/12 03:21:33;;;;;;;0.10;0.10;;;23.30;99.90;;;;;;5022889;28;20838;-83
2023/07/12 03:23:59;;;;;;;0.10;0.10;;;23.30;99.90;;;;;;5025163;28;20186;-83
2023/07/12 03:26:24;;;;;;;0.10;0.10;;;23.30;99.90;;;;;;5025181;28;20178;-84
2023/07/12 03:28:50;;;;;;;0.10;0.10;;;23.30;99.90;;;;;;5026267;28;20211;-82
2023/07/12 03:31:16;;;;;;;0.10;0.10;;;23.30;99.90;;;;;;5024185;28;20190;-83
2023/07/12 03:33:43;;;;;;;0.10;0.10;;;23.30;99.90;;;;;;5025283;28;20545;-84
2023/07/12 03:36:09;;;;;;;0.10;0.10;;;23.30;99.90;;;;;;5025752;28;20190;-83
2023/07/12 03:38:35;;;;;;;0.10;0.10;;;23.30;99.90;;;;;;5024516;28;20648;-82
2023/07/12 03:41:04;;;;;;;0.10;0.10;;;23.40;99.90;;;;;;5025285;28;20237;-83
2023/07/12 03:43:30;;;;;;;0.10;0.10;;;23.30;99.90;;;;;;5021265;28;20266;-84
2023/07/12 03:45:55;;;;;;;0.10;0.10;;;23.30;99.90;;;;;;5022046;28;20195;-85
2023/07/12 03:48:23;;;;;;;0.10;0.10;;;23.30;99.90;;;;;;5026975;28;20699;-84
2023/07/12 03:50:50;;;;;;;0.10;0.10;;;23.40;99.90;;;;;;5024998;28;20202;-83
2023/07/12 03:53:16;;;;;;;0.10;0.10;;;23.30;99.90;;;;;;5028774;28;20277;-83
2023/07/12 03:55:44;;;;;;;0.10;0.10;;;23.30;99.90;;;;;;5022773;28;20214;-82
2023/07/12 03:58:16;;;;;;;0.10;0.10;;;23.30;99.90;;;;;;5028099;28;20210;-82
2023/07/12 04:00:43;;;;;;;0.10;0.10;;;23.30;99.90;;;;;;5027580;28;20214;-83
2023/07/12 04:03:10;;;;;;;0.10;0.10;;;23.40;99.90;;;;;;5028403;28;20174;-83
2023/07/12 04:05:37;;;;;;;0.10;0.10;;;23.40;99.90;;;;;;5027337;28;20578;-83
2023/07/12 04:08:03;;;;;;;0.10;0.10;;;23.50;99.90;;;;;;5031254;28;20214;-82
2023/07/12 04:10:28;;;;;;;0.10;0.10;;;23.50;99.90;;;;;;5025417;28;20190;-84
2023/07/12 04:12:54;;;;;;;0.10;0.10;;;23.50;99.90;;;;;;5024088;28;20188;-84
2023/07/12 04:15:19;;;;;;;0.10;0.10;;;23.40;99.90;;;;;;5027057;28;20671;-83
2023/07/12 04:17:45;;;;;;;0.10;0.10;;;23.50;99.90;;;;;;5024121;28;20202;-85
2023/07/12 04:20:11;;;;;;;0.10;0.10;;;23.50;99.90;;;;;;5024038;28;20189;-83
2023/07/12 04:22:37;;;;;;;0.10;0.10;;;23.50;99.90;;;;;;5025075;28;20248;-82
2023/07/12 04:25:04;;;;;;;0.10;0.10;;;23.50;99.90;;;;;;5023425;28;20186;-82
2023/07/12 04:27:29;;;;;;;0.10;0.10;;;23.50;99.90;;;;;;5025429;28;20206;-83
2023/07/12 04:29:55;;;;;;;0.10;0.10;;;23.60;99.90;;;;;;5024986;28;21053;-83
2023/07/12 04:32:20;;;;;;;0.10;0.10;;;23.50;99.90;;;;;;5025046;28;20273;-84
2023/07/12 04:34:47;;;;;;;0.10;0.10;;;23.40;99.90;;;;;;5022182;28;20210;-84
2023/07/12 04:37:12;;;;;;;0.10;0.10;;;23.50;99.90;;;;;;5019760;28;20672;-85
2023/07/12 04:39:38;;;;;;;0.10;0.10;;;23.50;99.90;;;;;;5023661;28;20191;-83
2023/07/12 04:42:05;;;;;;;0.10;0.10;;;23.40;99.90;;;;;;5021908;28;20285;-84
2023/07/12 04:44:30;;;;;;;0.10;0.10;;;23.30;99.90;;;;;;5024599;28;20210;-83
2023/07/12 04:46:56;;;;;;;0.10;0.10;;;23.20;99.90;;;;;;5029663;28;20186;-83
2023/07/12 04:49:21;;;;;;;0.10;0.10;;;23.40;99.90;;;;;;5026165;28;20206;-84
2023/07/12 04:51:49;;;;;;;0.10;0.10;;;23.60;99.90;;;;;;5026736;28;20241;-83
2023/07/12 04:54:14;;;;;;;0.10;0.10;;;23.30;99.90;;;;;;5026407;28;20187;-83
2023/07/12 04:56:40;;;;;;;0.10;0.10;;;23.20;99.90;;;;;;5019026;28;21304;-84
2023/07/12 04:59:05;;;;;;;0.10;0.10;;;23.20;99.90;;;;;;5022574;28;20263;-83
2023/07/12 05:01:32;;;;;;;0.10;0.10;;;23.20;99.90;;;;;;5024442;28;20232;-83
2023/07/12 05:03:58;;;;;;;0.10;0.10;;;23.20;99.90;;;;;;5035200;28;20260;-82
2023/07/12 05:06:24;;;;;;;0.10;0.10;;;23.20;99.90;;;;;;5022842;28;20199;-83
2023/07/12 05:08:51;;;;;;;0.10;0.10;;;23.10;99.90;;;;;;5032031;28;20222;-83
2023/07/12 05:11:16;;;;;;;0.10;0.10;;;23.10;99.90;;;;;;5022041;28;20186;-83
2023/07/12 05:13:42;;;;;;;0.10;0.10;;;23.00;99.90;;;;;;5027515;28;20201;-84
2023/07/12 05:16:11;;;;;;;0.10;0.10;;;22.90;99.90;;;;;;5023013;28;20182;-83
2023/07/12 05:18:36;;;;;;;0.10;0.10;;;22.90;99.90;;;;;;5023833;28;20688;-83
2023/07/12 05:21:02;;;;;;;0.10;0.10;;;22.90;99.90;;;;;;5024850;28;20216;-84
2023/07/12 05:23:28;;;;;;;0.10;0.10;;;22.70;99.90;;;;;;5035056;28;20240;-83
2023/07/12 05:25:55;;;;;;;0.10;0.10;;;22.70;99.90;;;;;;5030917;28;20244;-83
2023/07/12 05:28:21;;;;;;;0.10;0.10;;;22.80;99.90;;;;;;5027934;28;20714;-82
2023/07/12 05:30:48;;;;;;;0.10;0.10;;;23.10;99.90;;;;;;5027428;28;20195;-83
2023/07/12 05:33:14;;;;;;;0.10;0.10;;;23.20;99.90;;;;;;5029295;28;20264;-83
2023/07/12 05:35:40;;;;;;;0.10;0.10;;;23.10;99.90;;;;;;5024044;28;20265;-84
2023/07/12 05:38:06;;;;;;;0.10;0.10;;;22.90;99.90;;;;;;5025865;28;20213;-82
2023/07/12 05:40:32;;;;;;;0.10;0.10;;;23.20;99.90;;;;;;5020505;28;20193;-82
2023/07/12 05:42:58;;;;;;;0.10;0.10;;;23.40;99.90;;;;;;5020463;28;20179;-82
2023/07/12 05:45:25;;;;;;;0.10;0.10;;;23.30;99.90;;;;;;5020228;28;20190;-82
2023/07/12 05:47:51;;;;;;;0.10;0.10;;;23.10;99.90;;;;;;5021176;28;20214;-81
2023/07/12 05:50:18;;;;;;;0.10;0.10;;;23.10;99.90;;;;;;5022009;28;20817;-82
2023/07/12 05:52:44;;;;;;;0.10;0.10;;;22.60;99.90;;;;;;5024342;28;20183;-82
2023/07/12 05:55:12;;;;;;;0.10;0.10;;;22.30;99.90;;;;;;5025762;28;20183;-82
2023/07/12 05:57:37;;;;;;;0.10;0.10;;;22.40;99.90;;;;;;5024133;28;20209;-82
2023/07/12 06:00:05;;;;;;;0.10;0.10;;;22.50;99.90;;;;;;5022202;28;20201;-82
2023/07/12 06:02:31;;;;;;;0.10;0.10;;;22.70;99.90;;;;;;5021057;28;20264;-81
2023/07/12 06:04:57;;;;;;;0.10;0.10;;;22.70;99.90;;;;;;5020052;28;20737;-82
2023/07/12 06:07:23;;;;;;;0.10;0.10;;;22.80;99.90;;;;;;5020106;28;20261;-82
2023/07/12 06:09:48;;;;;;;0.10;0.10;;;22.90;99.90;;;;;;5019160;28;20200;-82
2023/07/12 06:12:14;;;;;;;0.10;0.10;;;22.90;99.90;;;;;;5020774;28;20186;-85
2023/07/12 06:14:39;;;;;;;0.10;0.10;;;22.90;99.90;;;;;;5022652;28;20244;-83
2023/07/12 06:17:06;;;;;;;0.10;0.10;;;23.00;99.90;;;;;;5016830;28;20561;-82
2023/07/12 06:19:32;;;;;;;0.10;0.10;;;23.00;99.90;;;;;;5021375;28;20234;-84
2023/07/12 06:21:57;;;;;;;0.10;0.10;;;23.10;99.90;;;;;;5020119;28;20227;-84
2023/07/12 06:24:23;;;;;;;0.10;0.10;;;23.20;99.90;;;;;;5023313;28;21827;-84
2023/07/12 06:26:48;;;;;;;0.10;0.10;;;22.90;99.90;;;;;;5026164;28;20197;-85
2023/07/12 06:29:14;;;;;;;0.10;0.10;;;23.00;99.90;;;;;;5027289;28;20194;-84
2023/07/12 06:31:42;;;;;;;0.10;0.10;;;23.20;99.90;;;;;;5024672;28;20218;-83
2023/07/12 06:34:09;;;;;;;0.10;0.10;;;23.00;99.90;;;;;;5021664;28;20194;-84
2023/07/12 06:36:34;;;;;;;0.10;0.10;;;23.10;99.90;;;;;;5029803;28;20587;-84
2023/07/12 06:39:00;;;;;;;0.10;0.10;;;23.20;99.90;;;;;;5030223;28;20217;-84
2023/07/12 06:41:26;;;;;;;0.10;0.10;;;23.40;99.90;;;;;;5027790;28;20247;-83
2023/07/12 06:43:51;;;;;;;0.10;0.10;;;23.50;99.90;;;;;;5028757;28;20190;-84
2023/07/12 06:46:17;;;;;;;0.10;0.10;;;23.30;99.90;;;;;;5028411;28;20336;-84
2023/07/12 06:48:43;;;;;;;0.10;0.10;;;23.50;99.90;;;;;;5025270;28;20230;-84
2023/07/12 06:51:09;;;;;;;0.10;0.10;;;23.40;99.90;;;;;;5023987;28;20205;-84
2023/07/12 06:53:35;;;;;;;0.10;0.10;;;23.20;99.90;;;;;;5028231;28;20183;-84
2023/07/12 06:56:01;;;;;;;0.10;0.10;;;23.40;99.90;;;;;;5025618;28;20277;-83
2023/07/12 06:58:26;;;;;;;0.10;0.10;;;23.20;99.90;;;;;;5025929;28;21105;-84
2023/07/12 07:00:52;;;;;;;0.10;0.10;;;23.60;99.90;;;;;;5025090;28;20233;-84
2023/07/12 07:03:18;;;;;;;0.10;0.10;;;23.50;99.90;;;;;;5022053;28;20190;-84
2023/07/12 07:05:46;;;;;;;0.10;0.10;;;23.90;99.90;;;;;;5023811;28;20734;-82
2023/07/12 07:08:14;;;;;;;0.10;0.10;;;24.00;99.90;;;;;;5028226;28;20202;-84
2023/07/12 07:10:40;;;;;;;0.10;0.10;;;24.00;99.90;;;;;;5030144;28;20182;-84
2023/07/12 07:13:05;;;;;;;0.10;0.10;;;24.10;99.90;;;;;;5029102;28;20190;-84
2023/07/12 07:15:31;;;;;;;0.10;0.10;;;24.00;99.90;;;;;;5028270;28;20202;-83
2023/07/12 07:17:57;;;;;;;0.10;0.10;;;24.30;99.90;;;;;;5023888;28;20218;-83
2023/07/12 07:20:23;;;;;;;0.10;0.10;;;24.30;99.90;;;;;;5027067;28;20182;-84
2023/07/12 07:22:49;;;;;;;0.10;0.10;;;24.50;99.90;;;;;;5025088;28;20217;-83
2023/07/12 07:25:15;;;;;;;0.10;0.10;;;24.90;99.90;;;;;;5026555;28;20190;-84
2023/07/12 07:27:40;;;;;;;0.10;0.10;;;24.90;99.90;;;;;;5027221;28;20202;-83
2023/07/12 07:30:06;;;;;;;0.10;0.10;;;24.20;99.90;;;;;;5027185;28;20190;-84
2023/07/12 07:32:32;;;;;;;0.10;0.10;;;24.60;99.90;;;;;;5024609;28;20174;-84
2023/07/12 07:34:57;;;;;;;0.10;0.10;;;24.60;99.90;;;;;;5022287;28;20200;-83
2023/07/12 07:37:23;;;;;;;0.10;0.10;;;24.10;99.90;;;;;;5022748;28;20183;-82
2023/07/12 07:39:48;;;;;;;0.10;0.10;;;24.70;99.90;;;;;;5022116;28;20194;-83
2023/07/12 07:42:14;;;;;;;0.10;0.10;;;25.10;99.90;;;;;;5021931;28;20206;-84
2023/07/12 07:44:39;;;;;;;0.10;0.10;;;25.50;99.90;;;;;;5021734;28;20202;-84
2023/07/12 07:47:05;;;;;;;0.10;0.10;;;25.80;99.90;;;;;;5012919;28;20190;-84
2023/07/12 07:49:31;;;;;;;0.10;0.10;;;26.00;99.90;;;;;;5021290;28;20210;-84
2023/07/12 07:51:56;;;;;;;0.10;0.10;;;25.80;99.90;;;;;;5023650;28;20197;-83
2023/07/12 07:54:22;;;;;;;0.10;0.10;;;26.00;99.90;;;;;;5026649;28;20547;-84
2023/07/12 07:56:51;;;;;;;0.10;0.10;;;26.40;99.90;;;;;;5021499;28;20197;-84
2023/07/12 07:59:17;;;;;;;0.10;0.10;;;26.80;99.90;;;;;;5011306;28;20210;-83
2023/07/12 08:01:42;;;;;;;0.10;0.10;;;27.30;99.90;;;;;;5022806;28;21649;-83
2023/07/12 08:04:09;;;;;;;0.10;0.10;;;27.50;99.90;;;;;;5025362;28;20193;-83
2023/07/12 08:06:35;;;;;;;0.10;0.10;;;27.90;99.90;;;;;;5024565;28;20199;-85
2023/07/12 08:09:01;;;;;;;0.10;0.10;;;28.20;99.90;;;;;;5030016;28;20683;-83
2023/07/12 08:11:27;;;;;;;0.10;0.10;;;28.30;99.90;;;;;;5024146;28;20208;-84
2023/07/12 08:13:52;;;;;;;0.10;0.10;;;27.90;99.90;;;;;;5027728;28;20643;-84
2023/07/12 08:16:18;;;;;;;0.10;0.10;;;27.80;99.90;;;;;;5023267;28;20187;-83
2023/07/12 08:18:43;;;;;;;0.10;0.10;;;27.60;99.90;;;;;;5021399;28;20241;-85
2023/07/12 08:21:09;;;;;;;0.10;0.10;;;28.10;99.90;;;;;;5024591;28;20252;-83
2023/07/12 08:23:34;;;;;;;1.10;1.10;;;28.10;99.90;;;;;;5025450;28;20190;-83
2023/07/12 08:26:00;;;;;;;0.10;0.10;;;27.80;99.90;;;;;;5024342;28;20174;-83
2023/07/12 08:28:25;;;;;;;0.10;0.10;;;27.80;99.90;;;;;;5025055;28;20332;-84
2023/07/12 08:30:51;;;;;;;0.10;0.10;;;27.80;99.90;;;;;;5022304;28;20243;-83
2023/07/12 08:33:17;;;;;;;0.10;0.10;;;28.10;99.90;;;;;;5021815;28;20190;-83
2023/07/12 08:35:43;;;;;;;0.10;0.10;;;28.20;99.90;;;;;;5024914;28;20212;-84
2023/07/12 08:38:09;;;;;;;0.10;0.10;;;28.70;99.90;;;;;;5023231;28;20674;-84
2023/07/12 08:40:42;;;;;;;0.10;0.10;;;29.10;99.90;;;;;;5022820;28;20839;-84
2023/07/12 08:43:16;;;;;;;0.10;0.10;;;28.60;99.90;;;;;;5022273;28;20779;-82
2023/07/12 08:45:43;;;;;;;0.10;0.10;;;28.70;99.90;;;;;;5019947;28;20187;-83
2023/07/12 08:48:20;;;;;;;0.10;0.10;;;28.60;99.90;;;;;;5020833;28;20707;-83
2023/07/12 08:50:47;;;;;;;0.10;0.10;;;28.00;99.90;;;;;;5024036;28;20277;-82
2023/07/12 08:53:17;;;;;;;0.10;0.10;;;27.80;99.90;;;;;;5026041;28;20201;-84
2023/07/12 08:55:43;;;;;;;0.10;0.10;;;27.90;99.90;;;;;;5027758;28;21002;-83
2023/07/12 08:58:11;;;;;;;0.10;0.10;;;27.90;99.90;;;;;;5021381;28;20210;-83
2023/07/12 09:00:37;;;;;;;0.10;0.10;;;28.10;99.90;;;;;;5024467;28;20186;-84
2023/07/12 09:03:03;;;;;;;0.10;0.10;;;28.50;99.90;;;;;;5024662;28;20695;-83
2023/07/12 09:05:29;;;;;;;0.10;0.10;;;28.60;99.90;;;;;;5024408;28;20190;-83
2023/07/12 09:08:14;;;;;;;0.10;0.10;;;28.70;99.90;;;;;;5024942;28;20208;-83
2023/07/12 09:10:57;;;;;;;0.10;0.10;;;28.90;99.90;;;;;;5025746;28;20541;-83
2023/07/12 09:13:37;;;;;;;0.10;0.10;;;28.80;99.90;;;;;;5022097;28;20201;-83
2023/07/12 09:16:18;;;;;;;0.10;0.10;;;28.80;99.90;;;;;;5023069;28;20228;-83
2023/07/12 09:18:46;;;;;;;0.10;0.10;;;29.30;99.90;;;;;;5022310;28;20198;-84
2023/07/12 09:21:14;;;;;;;0.10;0.10;;;29.60;99.90;;;;;;5023983;28;20682;-83
2023/07/12 09:23:43;;;;;;;0.10;0.10;;;29.70;99.90;;;;;;5025536;28;20178;-84
2023/07/12 09:26:30;;;;;;;0.10;0.10;;;29.30;99.90;;;;;;5031219;28;20474;-83
2023/07/12 09:28:57;;;;;;;0.10;0.10;;;29.20;99.90;;;;;;5023833;28;21283;-84
2023/07/12 09:31:27;;;;;;;0.10;0.10;;;29.30;99.90;;;;;;5024429;28;20190;-83
2023/07/12 09:33:58;;;;;;;0.10;0.10;;;29.60;99.90;;;;;;5027522;28;20189;-83
2023/07/12 09:36:24;;;;;;;0.10;0.10;;;29.60;99.90;;;;;;5026207;28;20183;-83
2023/07/12 09:38:49;;;;;;;0.10;0.10;;;29.70;99.90;;;;;;5025513;28;20550;-82
2023/07/12 09:41:22;;;;;;;0.10;0.10;;;29.60;99.90;;;;;;5023841;28;20339;-83
2023/07/12 09:43:58;;;;;;;0.10;0.10;;;29.70;99.90;;;;;;5022118;28;20248;-83
2023/07/12 09:46:42;;;;;;;0.10;0.10;;;29.40;99.90;;;;;;5023349;28;20192;-83
2023/07/12 09:49:24;;;;;;;0.10;0.10;;;29.20;99.90;;;;;;5024123;28;20214;-83
2023/07/12 09:51:52;;;;;;;0.22;0.22;;;29.40;99.90;;;;;;5027010;28;20182;-82
2023/07/12 09:54:45;;;;;;;0.10;0.10;;;29.50;99.90;;;;;;5022647;28;20285;-82
2023/07/12 09:57:27;;;;;;;0.10;0.10;;;29.60;99.90;;;;;;5023080;28;20186;-82
2023/07/12 10:00:11;;;;;;;0.10;0.10;;;29.80;99.90;;;;;;5024952;28;20190;-82
2023/07/12 10:03:04;;;;;;;0.10;0.10;;;29.60;99.90;;;;;;5018474;28;20221;-82
2023/07/12 10:05:31;;;;;;;0.10;0.10;;;29.50;99.90;;;;;;5017827;28;20238;-81
2023/07/12 10:08:13;;;;;;;0.10;0.10;;;29.80;99.90;;;;;;5020861;28;21168;-82
2023/07/12 10:11:06;;;;;;;0.10;0.10;;;30.10;99.90;;;;;;5021114;28;20189;-82
2023/07/12 10:13:56;;;;;;;0.10;0.10;;;30.30;99.90;;;;;;5021540;28;20658;-82
2023/07/12 10:16:28;;;;;;;0.10;0.10;;;30.10;99.90;;;;;;5024656;28;20257;-82
2023/07/12 10:18:56;;;;;;;0.10;0.10;;;30.60;99.90;;;;;;5022095;28;20206;-82
2023/07/12 10:21:26;;;;;;;0.10;0.10;;;30.30;99.90;;;;;;5019477;28;20194;-82
2023/07/12 10:24:04;;;;;;;0.10;0.10;;;30.30;99.90;;;;;;5019645;28;20186;-81
2023/07/12 10:26:31;;;;;;;0.10;0.10;;;30.10;99.90;;;;;;5025801;28;20697;-82
2023/07/12 10:29:05;;;;;;;0.10;0.10;;;30.10;99.90;;;;;;5019081;28;20206;-82
2023/07/12 10:31:43;;;;;;;0.10;0.10;;;29.80;99.90;;;;;;5025944;28;20190;-82
2023/07/12 10:34:27;;;;;;;0.10;0.10;;;29.30;99.90;;;;;;5018557;28;20196;-81
2023/07/12 10:36:55;;;;;;;0.10;0.10;;;29.40;99.90;;;;;;5023952;28;20179;-81
2023/07/12 10:39:25;;;;;;;0.10;0.10;;;29.30;99.90;;;;;;5022601;28;20206;-82
2023/07/12 10:42:03;;;;;;;0.10;0.10;;;29.30;99.90;;;;;;5020924;28;20683;-82
2023/07/12 10:44:36;;;;;;;0.10;0.10;;;29.20;99.90;;;;;;5022434;28;20256;-82
2023/07/12 10:47:07;;;;;;;0.10;0.10;;;29.40;99.90;;;;;;5024152;28;20182;-82
2023/07/12 10:50:04;;;;;;;0.10;0.10;;;29.50;99.90;;;;;;5023489;28;20248;-82
2023/07/12 10:52:33;;;;;;;0.10;0.10;;;29.60;99.90;;;;;;5022797;28;20178;-82
2023/07/12 10:55:06;;;;;;;0.10;0.10;;;29.80;99.90;;;;;;5022872;28;21175;-81
2023/07/12 10:57:44;;;;;;;0.10;0.10;;;30.20;99.90;;;;;;5018503;28;20186;-82
2023/07/12 11:00:18;;;;;;;0.10;0.10;;;30.10;99.90;;;;;;5023800;28;20187;-82
2023/07/12 11:02:47;;;;;;;0.10;0.10;;;30.10;99.90;;;;;;5023572;28;20213;-82
2023/07/12 11:05:43;;;;;;;0.10;0.10;;;30.50;99.90;;;;;;5021811;28;20206;-82
2023/07/12 11:08:31;;;;;;;0.10;0.10;;;30.50;99.90;;;;;;5024007;28;20206;-82
2023/07/12 11:11:19;;;;;;;0.10;0.10;;;30.80;99.90;;;;;;5019609;28;20192;-82
2023/07/12 11:13:51;;;;;;;0.10;0.10;;;30.40;99.90;;;;;;5014107;28;20197;-82
2023/07/12 11:16:19;;;;;;;0.10;0.10;;;30.30;99.90;;;;;;5025909;28;20250;-82
2023/07/12 11:19:03;;;;;;;0.10;0.10;;;30.10;99.90;;;;;;5021720;28;20269;-82
2023/07/12 11:21:49;;;;;;;0.10;0.10;;;29.90;99.90;;;;;;5019787;28;20289;-82
2023/07/12 11:24:35;;;;;;;0.10;0.10;;;29.90;99.90;;;;;;5021257;28;20174;-82
2023/07/12 11:27:01;;;;;;;0.10;0.10;;;30.00;99.90;;;;;;5024156;28;20178;-82
2023/07/12 11:29:36;;;;;;;0.10;0.10;;;29.90;99.90;;;;;;5023228;28;20202;-82
2023/07/12 11:32:21;;;;;;;0.10;0.10;;;30.20;99.90;;;;;;5021701;28;20182;-82
2023/07/12 11:34:48;;;;;;;0.10;0.10;;;30.10;99.90;;;;;;5021441;28;20190;-82
2023/07/12 11:37:30;;;;;;;0.10;0.10;;;30.20;99.90;;;;;;5024809;28;20209;-82
2023/07/12 11:39:56;;;;;;;0.10;0.10;;;30.10;99.90;;;;;;5024996;28;20217;-82
2023/07/12 11:42:27;;;;;;;0.10;0.10;;;30.20;99.90;;;;;;5020205;28;20206;-82
2023/07/12 11:45:11;;;;;;;0.10;0.10;;;30.20;99.90;;;;;;5016712;28;20192;-82
2023/07/12 11:47:41;;;;;;;0.10;0.10;;;30.30;99.90;;;;;;5021622;28;20248;-82
2023/07/12 11:50:14;;;;;;;0.10;0.10;;;30.60;99.90;;;;;;5023597;28;20189;-82
2023/07/12 11:52:40;;;;;;;0.10;0.10;;;30.50;99.90;;;;;;5020452;28;20277;-83
2023/07/12 11:55:14;;;;;;;0.10;0.10;;;30.90;99.90;;;;;;5014745;28;20192;-83
2023/07/12 11:57:40;;;;;;;0.10;0.10;;;30.70;99.90;;;;;;5019685;28;20731;-83
2023/07/12 12:00:25;;;;;;;0.10;0.10;;;30.60;99.90;;;;;;5019494;28;20186;-83
2023/07/12 12:02:54;;;;;;;0.10;0.10;;;30.60;99.90;;;;;;5019474;28;20822;-83
2023/07/12 12:05:25;;;;;;;0.10;0.10;;;30.60;99.90;;;;;;5022207;28;20198;-83
2023/07/12 12:07:53;;;;;;;0.10;0.10;;;30.70;99.90;;;;;;5021910;28;20265;-82
2023/07/12 12:10:28;;;;;;;0.10;0.10;;;30.70;99.90;;;;;;5023553;28;20182;-83
2023/07/12 12:12:54;;;;;;;0.10;0.10;;;30.30;99.90;;;;;;5022387;28;20197;-82
2023/07/12 12:15:26;;;;;;;0.10;0.10;;;29.80;99.90;;;;;;5024650;28;20186;-83
2023/07/12 12:17:53;;;;;;;0.10;0.10;;;29.60;99.90;;;;;;5025473;28;20221;-83
2023/07/12 12:20:20;;;;;;;0.10;0.10;;;29.80;99.90;;;;;;5025231;28;20691;-82
2023/07/12 12:23:09;;;;;;;0.10;0.10;;;29.80;99.90;;;;;;5024447;28;20229;-83
2023/07/12 12:25:50;;;;;;;0.10;0.10;;;29.70;99.90;;;;;;5025389;28;20183;-82
2023/07/12 12:28:31;;;;;;;0.10;0.10;;;30.10;99.90;;;;;;5021008;28;20217;-83
2023/07/12 12:31:02;;;;;;;0.10;0.10;;;30.70;99.90;;;;;;5025187;28;20190;-82
2023/07/12 12:33:29;;;;;;;0.10;0.10;;;30.80;99.90;;;;;;5026686;28;20258;-82
2023/07/12 12:36:00;;;;;;;0.10;0.10;;;30.80;99.90;;;;;;5020804;28;20182;-82
2023/07/12 12:38:33;;;;;;;0.10;0.10;;;30.50;99.90;;;;;;5022678;28;20251;-82
2023/07/12 12:41:14;;;;;;;0.10;0.10;;;30.20;99.90;;;;;;5022263;28;20174;-82
2023/07/12 12:44:05;;;;;;;0.10;0.10;;;29.90;99.90;;;;;;5022919;28;20198;-82
2023/07/12 12:46:30;;;;;;;0.10;0.10;;;29.90;99.90;;;;;;5022396;28;20190;-81
2023/07/12 12:48:56;;;;;;;0.10;0.10;;;30.10;99.90;;;;;;5027917;28;20253;-82
2023/07/12 12:51:23;;;;;;;0.10;0.10;;;30.40;99.90;;;;;;5028696;28;20312;-82
2023/07/12 12:53:48;;;;;;;0.10;0.10;;;30.70;99.90;;;;;;5045003;28;20187;-82
2023/07/12 12:56:14;;;;;;;0.10;0.10;;;30.70;99.90;;;;;;5025072;28;20197;-82
2023/07/12 12:58:40;;;;;;;0.10;0.10;;;30.50;99.90;;;;;;5024607;28;20288;-82